Time;durP1;ratioP1;P1;durP2;ratioP2;P2;SDS_P1;SDS_P2;PMS_P1;PMS_P2;Temp;Humidity;BMP_temperature;BMP_pressure;BME280_temperature;BME280_humidity;BME280_pressure;Samples;Min_cycle;Max_cycle;Signal;HPM_P1;HPM_P2
2023/12/17 00:00:37;;;;;;;10.90;5.93;;;;;;;3.99;100.00;103942.91;2079422;28;20191;-67
2023/12/17 00:01:38;;;;;;;8.43;5.20;;;;;;;3.98;100.00;103941.28;2079498;28;20242;-67
2023/12/17 00:02:39;;;;;;;7.27;4.07;;;;;;;3.68;100.00;103894.47;2078862;28;20256;-67
2023/12/17 00:03:39;;;;;;;6.68;4.10;;;;;;;3.97;100.00;103949.81;2079433;28;20250;-67
2023/12/17 00:04:40;;;;;;;6.93;4.20;;;;;;;3.87;100.00;103936.31;2078849;28;20715;-67
2023/12/17 00:05:40;;;;;;;7.83;5.73;;;;;;;2.93;100.00;103794.66;2078846;28;20651;-67
2023/12/17 00:06:42;;;;;;;7.27;4.10;;;;;;;2.99;100.00;103801.63;2078086;28;20658;-67
2023/12/17 00:07:42;;;;;;;8.43;4.40;;;;;;;3.90;100.00;103950.25;2078369;28;20632;-67
2023/12/17 00:08:43;;;;;;;10.10;5.90;;;;;;;3.09;100.00;103832.38;2079647;28;20200;-67
2023/12/17 00:09:43;;;;;;;6.47;4.40;;;;;;;3.85;100.00;103946.81;2079797;28;20401;-67
2023/12/17 00:10:44;;;;;;;8.37;5.83;;;;;;;3.16;100.00;103837.47;2079310;28;20260;-67
2023/12/17 00:11:44;;;;;;;6.13;4.10;;;;;;;3.83;100.00;103947.09;2078024;28;20227;-67
2023/12/17 00:12:45;;;;;;;7.77;4.57;;;;;;;3.62;100.00;103921.22;2078804;28;20194;-67
2023/12/17 00:13:45;;;;;;;8.23;4.63;;;;;;;3.81;100.00;103946.63;2079058;28;20186;-67
2023/12/17 00:14:46;;;;;;;5.83;3.50;;;;;;;3.79;100.00;103948.84;2079281;28;20265;-67
2023/12/17 00:15:47;;;;;;;8.50;4.57;;;;;;;3.76;100.00;103949.47;2079157;28;20186;-67
2023/12/17 00:16:47;;;;;;;8.87;5.47;;;;;;;3.69;100.00;103954.53;2078745;28;20212;-67
2023/12/17 00:17:48;;;;;;;8.50;5.57;;;;;;;3.68;100.00;103958.41;2079249;28;20181;-67
2023/12/17 00:18:48;;;;;;;8.00;4.30;;;;;;;3.62;100.00;103945.91;2079391;28;20894;-67
2023/12/17 00:19:49;;;;;;;11.47;7.57;;;;;;;3.40;100.00;103920.31;2078214;28;20807;-67
2023/12/17 00:20:49;;;;;;;9.97;5.87;;;;;;;3.61;100.00;103962.66;2078978;28;20562;-67
2023/12/17 00:21:50;;;;;;;4.70;3.67;;;;;;;3.58;100.00;103963.25;2079048;28;20197;-67
2023/12/17 00:22:50;;;;;;;7.37;4.53;;;;;;;3.58;100.00;103963.25;2078648;28;21541;-67
2023/12/17 00:23:51;;;;;;;7.30;4.63;;;;;;;3.18;100.00;103914.72;2078867;28;20273;-67
2023/12/17 00:24:51;;;;;;;10.00;5.57;;;;;;;3.53;100.00;103971.59;2078666;28;20190;-67
2023/12/17 00:25:52;;;;;;;8.80;5.40;;;;;;;3.36;100.00;103939.31;2079237;28;20187;-67
2023/12/17 00:26:54;;;;;;;7.33;3.90;;;;;;;3.50;100.00;103972.22;2078279;28;20274;-67
2023/12/17 00:27:55;;;;;;;5.65;3.70;;;;;;;3.49;100.00;103965.91;2077501;28;20205;-67
2023/12/17 00:28:55;;;;;;;7.30;4.07;;;;;;;3.49;100.00;103967.84;2078446;28;20190;-67
2023/12/17 00:29:56;;;;;;;6.83;4.33;;;;;;;3.49;100.00;103971.38;2079218;28;21124;-67
2023/12/17 00:30:56;;;;;;;11.03;5.60;;;;;;;3.50;100.00;103969.47;2078658;28;20203;-67
2023/12/17 00:31:57;;;;;;;8.13;4.23;;;;;;;3.48;100.00;103975.25;2079214;28;20665;-67
2023/12/17 00:32:57;;;;;;;7.57;5.17;;;;;;;3.49;100.00;103974.13;2078490;28;20186;-67
2023/12/17 00:34:00;;;;;;;7.53;5.20;;;;;;;3.49;100.00;103978.81;2079287;28;20178;-67
2023/12/17 00:35:00;;;;;;;8.88;5.47;;;;;;;3.47;100.00;103976.38;2078089;28;20274;-67
2023/12/17 00:36:01;;;;;;;6.00;3.70;;;;;;;3.45;100.00;103975.84;2078880;28;20189;-67
2023/12/17 00:37:01;;;;;;;7.90;4.40;;;;;;;3.48;100.00;103983.47;2078913;28;20616;-67
2023/12/17 00:38:02;;;;;;;6.70;4.03;;;;;;;3.48;100.00;103977.16;2078343;28;20325;-67
2023/12/17 00:39:03;;;;;;;7.27;4.30;;;;;;;3.49;100.00;103985.09;2079259;28;20241;-67
2023/12/17 00:40:04;;;;;;;8.70;4.97;;;;;;;3.47;100.00;103987.34;2079138;28;20277;-67
2023/12/17 00:41:05;;;;;;;7.65;5.32;;;;;;;3.47;100.00;103994.75;2077714;28;20446;-67
2023/12/17 00:42:05;;;;;;;7.00;4.37;;;;;;;3.43;100.00;103983.56;2078994;28;20984;-67
2023/12/17 00:43:06;;;;;;;9.10;4.30;;;;;;;3.49;100.00;104000.75;2078591;28;20547;-67
2023/12/17 00:44:06;;;;;;;6.63;4.13;;;;;;;3.49;100.00;104007.03;2078395;28;20802;-67
2023/12/17 00:45:07;;;;;;;8.47;6.00;;;;;;;3.27;100.00;103992.38;2078352;28;21169;-67
2023/12/17 00:46:08;;;;;;;8.73;4.50;;;;;;;3.52;100.00;104008.34;2078845;28;20215;-67
2023/12/17 00:47:08;;;;;;;7.23;4.33;;;;;;;3.50;100.00;104008.66;2078895;28;20232;-67
2023/12/17 00:48:09;;;;;;;7.57;5.33;;;;;;;3.47;100.00;104016.69;2078463;28;20216;-67
2023/12/17 00:49:10;;;;;;;7.67;4.50;;;;;;;3.53;100.00;104016.28;2079019;28;20191;-67
2023/12/17 00:50:10;;;;;;;7.07;4.43;;;;;;;3.52;100.00;104019.31;2078113;28;20217;-67
2023/12/17 00:51:11;;;;;;;10.23;6.33;;;;;;;3.53;100.00;104026.44;2078611;28;20195;-67
2023/12/17 00:52:12;;;;;;;12.80;8.05;;;;;;;3.55;100.00;104018.75;2078162;28;20191;-67
2023/12/17 00:53:12;;;;;;;7.40;4.67;;;;;;;3.56;100.00;104017.63;2078819;28;20192;-67
2023/12/17 00:54:14;;;;;;;13.07;7.77;;;;;;;3.56;100.00;104018.44;2078770;28;20243;-67
2023/12/17 00:55:14;;;;;;;9.10;6.43;;;;;;;3.53;100.00;104016.28;2078875;28;20192;-67
2023/12/17 00:56:14;;;;;;;6.93;4.47;;;;;;;3.57;100.00;104006.34;2078640;28;20289;-67
2023/12/17 00:57:15;;;;;;;8.70;4.63;;;;;;;3.58;100.00;104015.38;2079067;28;20250;-67
2023/12/17 00:58:16;;;;;;;6.03;3.70;;;;;;;3.59;100.00;104033.47;2078681;28;20190;-67
2023/12/17 00:59:16;;;;;;;6.13;3.73;;;;;;;3.53;100.00;104002.56;2079295;28;20438;-67
2023/12/17 01:00:17;;;;;;;9.03;4.27;;;;;;;3.61;100.00;104012.03;2078576;28;20204;-67
2023/12/17 01:01:18;;;;;;;10.47;6.30;;;;;;;3.58;100.00;104009.88;2078976;28;20395;-67
2023/12/17 01:02:18;;;;;;;8.23;4.57;;;;;;;3.55;100.00;104008.56;2078545;28;20185;-67
2023/12/17 01:03:19;;;;;;;8.53;4.87;;;;;;;3.57;100.00;104008.25;2079544;28;20263;-67
2023/12/17 01:04:19;;;;;;;8.47;4.57;;;;;;;3.16;100.00;103933.38;2078586;28;20200;-67
2023/12/17 01:05:19;;;;;;;8.60;5.00;;;;;;;3.57;100.00;104008.25;2079362;28;20192;-67
2023/12/17 01:06:20;;;;;;;9.80;6.37;;;;;;;3.54;100.00;104011.63;2078726;28;20188;-67
2023/12/17 01:07:21;;;;;;;7.30;4.10;;;;;;;3.54;100.00;104012.44;2078028;28;20193;-67
2023/12/17 01:08:21;;;;;;;7.93;4.50;;;;;;;3.55;100.00;104008.56;2078604;28;20712;-67
2023/12/17 01:09:22;;;;;;;8.67;5.63;;;;;;;3.57;100.00;104013.75;2078779;28;20206;-67
2023/12/17 01:10:22;;;;;;;7.90;4.30;;;;;;;3.54;100.00;104011.63;2078314;28;20199;-67
2023/12/17 01:11:23;;;;;;;7.73;4.23;;;;;;;3.51;100.00;104012.22;2078961;28;20188;-67
2023/12/17 01:12:24;;;;;;;9.70;4.17;;;;;;;3.44;100.00;104026.31;2078549;28;20211;-67
2023/12/17 01:13:24;;;;;;;11.73;6.27;;;;;;;3.33;100.00;104002.16;2078803;28;20203;-67
2023/12/17 01:14:25;;;;;;;7.50;4.93;;;;;;;3.46;100.00;104017.81;2078403;28;20191;-67
2023/12/17 01:15:26;;;;;;;8.20;5.40;;;;;;;3.43;100.00;104013.75;2079005;28;20287;-66
2023/12/17 01:16:26;;;;;;;9.77;6.30;;;;;;;3.42;100.00;104011.28;2078348;28;20637;-67
2023/12/17 01:17:27;;;;;;;6.03;4.13;;;;;;;3.38;100.00;104015.78;2078236;28;20199;-67
2023/12/17 01:18:27;;;;;;;8.37;4.20;;;;;;;3.35;100.00;104014.44;2078276;28;20179;-67
2023/12/17 01:19:28;;;;;;;9.23;5.87;;;;;;;3.35;100.00;104008.97;2078605;28;20191;-66
2023/12/17 01:20:28;;;;;;;9.10;6.03;;;;;;;3.34;100.00;104012.81;2079355;28;20236;-67
2023/12/17 01:21:29;;;;;;;10.53;6.03;;;;;;;3.34;100.00;104009.25;2078929;28;20199;-66
2023/12/17 01:22:30;;;;;;;13.43;8.63;;;;;;;3.32;100.00;104006.81;2077884;28;20216;-66
2023/12/17 01:23:31;;;;;;;11.60;8.00;;;;;;;3.27;100.00;104012.38;2078480;28;20200;-66
2023/12/17 01:24:32;;;;;;;12.50;7.93;;;;;;;3.29;100.00;104006.63;2078517;28;20208;-66
2023/12/17 01:25:32;;;;;;;9.60;5.60;;;;;;;3.29;100.00;104015.63;2079041;28;20599;-66
2023/12/17 01:26:34;;;;;;;7.60;4.63;;;;;;;3.30;100.00;104005.50;2078230;28;20184;-66
2023/12/17 01:27:35;;;;;;;10.07;6.35;;;;;;;3.29;100.00;104003.88;2078431;28;20646;-66
2023/12/17 01:28:53;;;;;;;7.27;4.47;;;;;;;3.31;100.00;104004.38;2079289;28;20272;-67
2023/12/17 01:29:54;;;;;;;9.82;6.00;;;;;;;3.28;100.00;104005.00;2078718;28;20184;-66
2023/12/17 01:30:54;;;;;;;10.13;6.47;;;;;;;3.15;100.00;103984.66;2078726;28;20676;-66
2023/12/17 01:31:57;;;;;;;6.87;4.90;;;;;;;2.37;100.00;103862.50;2079468;28;20176;-67
2023/12/17 01:32:57;;;;;;;6.72;4.30;;;;;;;3.26;100.00;104001.72;2078054;28;20755;-66
2023/12/17 01:33:58;;;;;;;9.23;5.90;;;;;;;3.19;100.00;103991.16;2078503;28;20205;-66
2023/12/17 01:34:59;;;;;;;10.03;6.50;;;;;;;3.24;100.00;103993.00;2078886;28;20196;-66
2023/12/17 01:35:59;;;;;;;9.73;5.20;;;;;;;3.21;100.00;103997.16;2078720;28;20673;-66
2023/12/17 01:37:00;;;;;;;10.07;5.83;;;;;;;3.23;100.00;104005.09;2078758;28;20199;-66
2023/12/17 01:38:00;;;;;;;9.87;5.93;;;;;;;3.21;100.00;103996.34;2078050;28;20180;-66
2023/12/17 01:39:01;;;;;;;12.20;7.53;;;;;;;3.20;100.00;103994.72;2078460;28;20231;-66
2023/12/17 01:40:01;;;;;;;7.47;5.47;;;;;;;3.18;100.00;103999.69;2079534;28;20626;-66
2023/12/17 01:41:02;;;;;;;13.17;7.10;;;;;;;1.78;100.00;103778.34;2077799;28;20203;-66
2023/12/17 01:42:03;;;;;;;10.35;5.93;;;;;;;3.06;100.00;103978.25;2079062;28;20261;-66
2023/12/17 01:43:03;;;;;;;12.23;7.90;;;;;;;3.18;100.00;103997.75;2078514;28;20199;-66
2023/12/17 01:44:04;;;;;;;11.37;6.33;;;;;;;3.17;100.00;103995.31;2078728;28;20185;-67
2023/12/17 01:45:06;;;;;;;10.80;7.40;;;;;;;3.17;100.00;104001.59;2078905;28;20669;-66
2023/12/17 01:46:07;;;;;;;11.70;7.88;;;;;;;3.17;100.00;103996.13;2078246;28;20184;-66
2023/12/17 01:47:08;;;;;;;12.32;7.63;;;;;;;2.70;100.00;103922.44;2080390;28;20651;-66
2023/12/17 01:48:09;;;;;;;10.85;6.22;;;;;;;3.19;100.00;103998.56;2079052;28;20211;-66
2023/12/17 01:49:10;;;;;;;11.40;7.97;;;;;;;3.15;100.00;103992.88;2080991;28;20192;-66
2023/12/17 01:50:10;;;;;;;7.87;5.33;;;;;;;2.87;100.00;103946.53;2080064;28;20637;-66
2023/12/17 01:51:11;;;;;;;10.80;6.57;;;;;;;3.14;100.00;103985.75;2080721;28;20200;-66
2023/12/17 01:52:12;;;;;;;12.05;6.78;;;;;;;3.13;100.00;103986.88;2079372;28;20193;-66
2023/12/17 01:53:14;;;;;;;11.87;7.37;;;;;;;3.11;100.00;103991.84;2079767;28;20211;-66
2023/12/17 01:54:15;;;;;;;10.45;6.50;;;;;;;3.11;100.00;103994.59;2079385;28;20450;-66
2023/12/17 01:55:16;;;;;;;12.00;6.93;;;;;;;3.05;100.00;103981.28;2080214;28;20195;-66
2023/12/17 01:56:16;;;;;;;8.57;5.70;;;;;;;3.10;100.00;103992.16;2080087;28;20183;-66
2023/12/17 01:57:17;;;;;;;9.60;6.30;;;;;;;2.92;100.00;103960.16;2080970;28;20182;-67
2023/12/17 01:58:18;;;;;;;8.90;5.60;;;;;;;2.78;100.00;103935.44;2080172;28;20194;-66
2023/12/17 01:59:18;;;;;;;9.30;5.87;;;;;;;2.19;100.00;103838.69;2080649;28;20214;-66
2023/12/17 02:00:19;;;;;;;11.60;7.10;;;;;;;3.09;100.00;103983.09;2079622;28;20687;-66
2023/12/17 02:01:20;;;;;;;12.97;7.97;;;;;;;3.11;100.00;103980.88;2080660;28;20192;-66
2023/12/17 02:02:21;;;;;;;10.48;5.95;;;;;;;3.10;100.00;103981.19;2079520;28;20733;-66
2023/12/17 02:03:21;;;;;;;13.10;6.87;;;;;;;3.12;100.00;103977.03;2079614;28;20172;-66
2023/12/17 02:04:22;;;;;;;10.10;6.17;;;;;;;3.07;100.00;103977.13;2079467;28;20188;-67
2023/12/17 02:05:22;;;;;;;9.33;6.10;;;;;;;3.05;100.00;103978.53;2080198;28;20184;-67
2023/12/17 02:06:23;;;;;;;13.27;8.50;;;;;;;2.82;100.00;103938.41;2079888;28;20263;-66
2023/12/17 02:07:23;;;;;;;13.10;8.30;;;;;;;3.08;100.00;103975.19;2079275;28;20192;-66
2023/12/17 02:08:24;;;;;;;13.77;7.70;;;;;;;3.07;100.00;103970.81;2079820;28;20211;-67
2023/12/17 02:09:24;;;;;;;9.13;6.00;;;;;;;3.07;100.00;103970.81;2080195;28;20223;-67
2023/12/17 02:10:26;;;;;;;10.43;6.83;;;;;;;2.47;100.00;103871.34;2080133;28;20280;-67
2023/12/17 02:11:27;;;;;;;11.50;6.75;;;;;;;2.91;100.00;103939.31;2080444;28;20200;-66
2023/12/17 02:12:32;;;;;;;8.60;5.43;;;;;;;3.02;100.00;103963.50;2079738;28;20192;-66
2023/12/17 02:13:32;;;;;;;7.70;4.75;;;;;;;2.76;100.00;103920.41;2079939;28;20219;-67
2023/12/17 02:14:33;;;;;;;12.93;7.40;;;;;;;2.97;100.00;103957.31;2079032;28;20278;-66
2023/12/17 02:15:33;;;;;;;13.73;7.50;;;;;;;2.96;100.00;103964.72;2080003;28;20198;-67
2023/12/17 02:16:34;;;;;;;13.13;7.30;;;;;;;2.94;100.00;103957.91;2079984;28;20194;-67
2023/12/17 02:17:34;;;;;;;12.83;7.10;;;;;;;2.93;100.00;103962.56;2079789;28;20196;-67
2023/12/17 02:18:35;;;;;;;8.50;5.70;;;;;;;2.91;100.00;103962.06;2079702;28;20582;-66
2023/12/17 02:19:35;;;;;;;9.60;5.93;;;;;;;2.00;100.00;103811.38;2079925;28;20187;-67
2023/12/17 02:20:36;;;;;;;11.40;6.40;;;;;;;2.92;100.00;103960.94;2079017;28;21745;-67
2023/12/17 02:21:36;;;;;;;11.80;8.00;;;;;;;2.93;100.00;103959.03;2079896;28;20976;-66
2023/12/17 02:22:38;;;;;;;14.23;8.93;;;;;;;1.72;100.00;103767.78;2079656;28;21072;-67
2023/12/17 02:23:39;;;;;;;10.77;6.30;;;;;;;2.91;100.00;103958.50;2080094;28;20184;-67
2023/12/17 02:24:39;;;;;;;10.83;6.70;;;;;;;2.92;100.00;103954.66;2080032;28;20291;-67
2023/12/17 02:25:40;;;;;;;10.20;5.97;;;;;;;2.93;100.00;103954.34;2079906;28;20449;-67
2023/12/17 02:26:41;;;;;;;13.97;7.97;;;;;;;2.91;100.00;103955.75;2079398;28;20716;-67
2023/12/17 02:27:43;;;;;;;14.07;8.15;;;;;;;2.89;100.00;103955.25;2079624;28;20192;-67
2023/12/17 02:28:45;;;;;;;14.02;7.63;;;;;;;2.89;100.00;103958.00;2079600;28;20188;-67
2023/12/17 02:29:46;;;;;;;8.32;4.78;;;;;;;2.87;100.00;103961.03;2079692;28;20677;-67
2023/12/17 02:30:46;;;;;;;10.80;5.50;;;;;;;2.85;100.00;103965.19;2079733;28;20561;-67
2023/12/17 02:31:47;;;;;;;11.87;5.33;;;;;;;2.84;100.00;103961.66;2080402;28;20605;-67
2023/12/17 02:32:47;;;;;;;6.50;4.53;;;;;;;2.76;100.00;103943.13;2080089;28;20214;-67
2023/12/17 02:33:48;;;;;;;10.60;6.33;;;;;;;2.80;100.00;103948.81;2080147;28;20211;-67
2023/12/17 02:34:49;;;;;;;9.83;5.73;;;;;;;2.78;100.00;103953.81;2079434;28;20660;-67
2023/12/17 02:35:50;;;;;;;10.93;6.80;;;;;;;2.76;100.00;103953.28;2080103;28;20191;-67
2023/12/17 02:36:50;;;;;;;8.67;5.10;;;;;;;2.73;100.00;103951.16;2079246;28;20195;-67
2023/12/17 02:37:51;;;;;;;8.17;4.80;;;;;;;2.78;100.00;103953.81;2079715;28;20202;-67
2023/12/17 02:38:51;;;;;;;7.87;4.70;;;;;;;2.76;100.00;103956.84;2079904;28;20264;-67
2023/12/17 02:39:52;;;;;;;9.53;6.17;;;;;;;2.75;100.00;103951.66;2079514;28;20191;-67
2023/12/17 02:40:52;;;;;;;11.37;6.67;;;;;;;2.73;100.00;103940.19;2080411;28;20317;-67
2023/12/17 02:41:53;;;;;;;7.90;5.20;;;;;;;2.74;100.00;103944.56;2080383;28;20219;-67
2023/12/17 02:42:54;;;;;;;9.87;4.73;;;;;;;2.72;100.00;103944.84;2079351;28;20690;-67
2023/12/17 02:43:54;;;;;;;10.30;5.40;;;;;;;2.73;100.00;103946.47;2079906;28;20191;-67
2023/12/17 02:44:55;;;;;;;8.60;5.63;;;;;;;2.70;100.00;103943.50;2079731;28;20280;-66
2023/12/17 02:45:55;;;;;;;13.73;5.77;;;;;;;2.69;100.00;103945.47;2079520;28;20689;-67
2023/12/17 02:46:56;;;;;;;9.13;5.20;;;;;;;2.69;100.00;103947.38;2079017;28;20266;-67
2023/12/17 02:47:56;;;;;;;9.27;5.27;;;;;;;2.68;100.00;103946.53;2079068;28;20284;-67
2023/12/17 02:48:57;;;;;;;10.40;5.40;;;;;;;2.68;100.00;103948.50;2080479;28;20248;-67
2023/12/17 02:49:57;;;;;;;9.50;5.97;;;;;;;2.69;100.00;103950.13;2079219;28;20656;-67
2023/12/17 02:50:58;;;;;;;13.07;6.73;;;;;;;2.73;100.00;103940.19;2079385;28;20580;-67
2023/12/17 02:51:58;;;;;;;10.67;4.97;;;;;;;2.63;100.00;103940.34;2080069;28;20195;-67
2023/12/17 02:52:59;;;;;;;10.37;6.33;;;;;;;2.63;100.00;103934.88;2079002;28;20206;-67
2023/12/17 02:53:59;;;;;;;9.70;6.20;;;;;;;2.67;100.00;103939.44;2079408;28;20280;-67
2023/12/17 02:55:00;;;;;;;11.30;5.80;;;;;;;2.72;100.00;103944.06;2079638;28;20199;-67
2023/12/17 02:56:00;;;;;;;9.00;5.77;;;;;;;2.72;100.00;103942.09;2079535;28;20194;-67
2023/12/17 02:57:01;;;;;;;7.63;4.53;;;;;;;2.73;100.00;103951.16;2079433;28;20194;-67
2023/12/17 02:58:05;;;;;;;9.50;4.87;;;;;;;2.71;100.00;103942.41;2079599;28;20188;-67
2023/12/17 02:59:08;;;;;;;9.05;5.40;;;;;;;2.69;100.00;103947.38;2079716;28;20179;-67
2023/12/17 03:00:09;;;;;;;8.02;5.25;;;;;;;2.67;100.00;103933.97;2079336;28;20671;-67
2023/12/17 03:01:09;;;;;;;10.90;6.40;;;;;;;2.65;100.00;103943.59;2079218;28;20183;-67
2023/12/17 03:02:10;;;;;;;8.27;4.87;;;;;;;1.32;100.00;103733.66;2079687;28;20676;-67
2023/12/17 03:03:10;;;;;;;8.67;5.30;;;;;;;2.63;100.00;103945.84;2078785;28;20286;-67
2023/12/17 03:04:11;;;;;;;8.83;5.90;;;;;;;2.68;100.00;103941.06;2078224;28;20690;-67
2023/12/17 03:05:12;;;;;;;7.18;4.60;;;;;;;2.65;100.00;103941.69;2079510;28;20179;-67
2023/12/17 03:06:12;;;;;;;9.20;5.30;;;;;;;2.65;100.00;103947.16;2080051;28;20222;-67
2023/12/17 03:07:13;;;;;;;9.60;5.80;;;;;;;1.62;100.00;103773.41;2079057;28;20188;-67
2023/12/17 03:08:15;;;;;;;8.20;4.73;;;;;;;2.64;100.00;103945.53;2077520;28;20215;-67
2023/12/17 03:09:16;;;;;;;10.63;5.68;;;;;;;2.65;100.00;103949.09;2080012;28;20221;-67
2023/12/17 03:10:16;;;;;;;8.73;4.97;;;;;;;2.65;100.00;103947.16;2079313;28;20186;-67
2023/12/17 03:11:16;;;;;;;9.37;5.03;;;;;;;2.67;100.00;103953.16;2079466;28;20191;-67
2023/12/17 03:12:17;;;;;;;9.77;6.63;;;;;;;2.66;100.00;103942.47;2079061;28;20202;-67
2023/12/17 03:13:18;;;;;;;11.50;6.70;;;;;;;2.65;100.00;103951.81;2079179;28;20188;-67
2023/12/17 03:14:20;;;;;;;10.52;6.25;;;;;;;2.65;100.00;103946.34;2079255;28;20186;-67
2023/12/17 03:15:20;;;;;;;6.97;4.50;;;;;;;2.62;100.00;103953.22;2080191;28;20563;-67
2023/12/17 03:16:22;;;;;;;9.83;6.40;;;;;;;2.60;100.00;103955.47;2079299;28;20191;-67
2023/12/17 03:17:22;;;;;;;10.60;5.32;;;;;;;2.58;100.00;103957.66;2079242;28;20252;-67
2023/12/17 03:18:23;;;;;;;8.60;4.90;;;;;;;2.62;100.00;103950.50;2078540;28;20187;-67
2023/12/17 03:19:23;;;;;;;9.73;4.67;;;;;;;2.06;100.00;103884.03;2079449;28;20190;-67
2023/12/17 03:20:24;;;;;;;10.30;4.77;;;;;;;2.59;100.00;103959.31;2079176;28;20195;-67
2023/12/17 03:21:26;;;;;;;8.93;5.87;;;;;;;1.73;100.00;103819.44;2078970;28;20628;-67
2023/12/17 03:22:27;;;;;;;9.07;6.15;;;;;;;2.57;100.00;103950.56;2078963;28;20683;-67
2023/12/17 03:23:27;;;;;;;7.90;4.80;;;;;;;2.57;100.00;103956.03;2079786;28;20892;-67
2023/12/17 03:24:28;;;;;;;8.60;5.00;;;;;;;2.58;100.00;103954.94;2079960;28;20664;-67
2023/12/17 03:25:28;;;;;;;9.90;6.10;;;;;;;2.58;100.00;103954.13;2079333;28;20200;-67
2023/12/17 03:26:29;;;;;;;7.43;4.70;;;;;;;2.57;100.00;103956.03;2079502;28;20199;-67
2023/12/17 03:27:29;;;;;;;8.13;5.27;;;;;;;2.56;100.00;103951.69;2078954;28;20201;-67
2023/12/17 03:28:30;;;;;;;10.67;6.50;;;;;;;2.55;100.00;103946.50;2079075;28;20265;-67
2023/12/17 03:29:30;;;;;;;9.47;4.60;;;;;;;2.49;100.00;103939.47;2079526;28;20208;-67
2023/12/17 03:30:31;;;;;;;8.80;5.20;;;;;;;2.56;100.00;103942.69;2079059;28;20258;-67
2023/12/17 03:31:31;;;;;;;9.43;4.23;;;;;;;2.57;100.00;103938.81;2079802;28;20215;-67
2023/12/17 03:32:32;;;;;;;8.27;5.23;;;;;;;2.56;100.00;103942.69;2079220;28;20243;-67
2023/12/17 03:33:32;;;;;;;8.57;5.33;;;;;;;2.54;100.00;103944.88;2079525;28;20194;-67
2023/12/17 03:34:33;;;;;;;8.37;5.70;;;;;;;2.41;100.00;103915.53;2078864;28;20254;-67
2023/12/17 03:35:33;;;;;;;10.00;6.00;;;;;;;2.51;100.00;103942.75;2079730;28;20198;-67
2023/12/17 03:36:34;;;;;;;7.47;4.07;;;;;;;2.45;100.00;103939.28;2079350;28;20197;-67
2023/12/17 03:37:34;;;;;;;9.83;5.90;;;;;;;2.46;100.00;103949.09;2078877;28;20214;-67
2023/12/17 03:38:35;;;;;;;8.87;5.47;;;;;;;2.43;100.00;103937.94;2079062;28;20206;-67
2023/12/17 03:39:35;;;;;;;9.97;5.77;;;;;;;1.52;100.00;103789.94;2079517;28;20178;-67
2023/12/17 03:40:36;;;;;;;11.50;6.00;;;;;;;2.05;100.00;103874.22;2079751;28;20207;-67
2023/12/17 03:41:36;;;;;;;11.13;5.73;;;;;;;2.43;100.00;103936.03;2078951;28;20199;-67
2023/12/17 03:42:37;;;;;;;10.00;5.57;;;;;;;2.43;100.00;103932.47;2078461;28;20284;-67
2023/12/17 03:43:37;;;;;;;8.33;4.73;;;;;;;2.38;100.00;103929.81;2079698;28;20193;-66
2023/12/17 03:44:38;;;;;;;9.27;5.70;;;;;;;2.43;100.00;103932.47;2079129;28;20199;-67
2023/12/17 03:45:38;;;;;;;9.73;5.43;;;;;;;2.40;100.00;103933.88;2079394;28;20267;-67
2023/12/17 03:46:39;;;;;;;7.53;4.30;;;;;;;2.43;100.00;103933.28;2078441;28;20522;-67
2023/12/17 03:47:47;;;;;;;8.63;5.53;;;;;;;2.37;100.00;103939.13;2078263;28;20531;-67
2023/12/17 03:48:47;;;;;;;9.95;6.18;;;;;;;2.34;100.00;103936.97;2079197;28;20202;-67
2023/12/17 03:49:48;;;;;;;8.97;5.40;;;;;;;1.49;100.00;103815.16;2080081;28;20679;-67
2023/12/17 03:50:48;;;;;;;10.07;5.53;;;;;;;2.27;100.00;103931.88;2079148;28;20181;-66
2023/12/17 03:51:49;;;;;;;8.80;5.93;;;;;;;2.25;100.00;103936.84;2079271;28;20453;-66
2023/12/17 03:52:49;;;;;;;9.97;4.70;;;;;;;2.21;100.00;103930.31;2078663;28;20193;-66
2023/12/17 03:53:49;;;;;;;7.67;4.20;;;;;;;2.23;100.00;103938.25;2079378;28;20198;-66
2023/12/17 03:54:50;;;;;;;7.93;4.47;;;;;;;2.23;100.00;103933.59;2079225;28;20223;-66
2023/12/17 03:55:50;;;;;;;8.37;4.47;;;;;;;2.25;100.00;103930.53;2079193;28;20203;-66
2023/12/17 03:56:51;;;;;;;7.97;4.70;;;;;;;2.27;100.00;103940.09;2078613;28;20183;-66
2023/12/17 03:57:51;;;;;;;8.57;5.73;;;;;;;2.26;100.00;103943.13;2079296;28;20179;-66
2023/12/17 03:58:52;;;;;;;11.87;7.03;;;;;;;2.19;100.00;103932.56;2078628;28;20243;-66
2023/12/17 03:59:52;;;;;;;12.23;6.87;;;;;;;2.28;100.00;103943.66;2079778;28;20267;-66
2023/12/17 04:00:53;;;;;;;10.80;5.50;;;;;;;2.28;100.00;103939.00;2078016;28;20187;-66
2023/12/17 04:01:54;;;;;;;10.40;5.37;;;;;;;2.21;100.00;103921.31;2079308;28;20187;-66
2023/12/17 04:02:55;;;;;;;8.67;5.47;;;;;;;2.40;100.00;103944.81;2078597;28;20185;-66
2023/12/17 04:03:57;;;;;;;9.83;5.67;;;;;;;2.48;100.00;103941.44;2079352;28;20620;-66
2023/12/17 04:04:57;;;;;;;10.02;5.75;;;;;;;2.52;100.00;103944.38;2078611;28;20247;-66
2023/12/17 04:05:59;;;;;;;9.30;6.00;;;;;;;2.54;100.00;103939.41;2078978;28;20276;-66
2023/12/17 04:07:00;;;;;;;9.43;5.18;;;;;;;2.53;100.00;103940.53;2079605;28;20668;-66
2023/12/17 04:08:00;;;;;;;11.47;6.53;;;;;;;2.51;100.00;103921.66;2078211;28;20544;-66
2023/12/17 04:09:00;;;;;;;12.40;6.77;;;;;;;2.56;100.00;103946.22;2078341;28;20223;-66
2023/12/17 04:10:02;;;;;;;10.00;5.97;;;;;;;2.58;100.00;103943.97;2079023;28;20194;-66
2023/12/17 04:11:03;;;;;;;9.95;5.75;;;;;;;2.57;100.00;103933.34;2078653;28;20198;-66
2023/12/17 04:12:04;;;;;;;9.97;5.77;;;;;;;2.52;100.00;103934.22;2078761;28;20202;-66
2023/12/17 04:13:04;;;;;;;10.63;6.70;;;;;;;2.58;100.00;103945.91;2078606;28;20179;-66
2023/12/17 04:14:05;;;;;;;8.53;4.73;;;;;;;2.60;100.00;103939.03;2078599;28;20195;-66
2023/12/17 04:15:06;;;;;;;7.50;4.63;;;;;;;1.70;100.00;103798.16;2079172;28;20270;-66
2023/12/17 04:16:07;;;;;;;8.65;5.15;;;;;;;2.59;100.00;103944.81;2078883;28;20188;-66
2023/12/17 04:17:07;;;;;;;7.77;4.50;;;;;;;2.62;100.00;103952.44;2078972;28;20205;-66
2023/12/17 04:18:08;;;;;;;7.77;4.70;;;;;;;2.59;100.00;103948.38;2078057;28;20265;-66
2023/12/17 04:19:08;;;;;;;7.63;4.23;;;;;;;2.52;100.00;103941.63;2079134;28;20207;-66
2023/12/17 04:20:09;;;;;;;7.90;4.73;;;;;;;2.51;100.00;103940.03;2078765;28;20537;-66
2023/12/17 04:21:10;;;;;;;7.53;4.22;;;;;;;2.56;100.00;103950.91;2078782;28;20180;-66
2023/12/17 04:22:10;;;;;;;7.63;4.73;;;;;;;2.49;100.00;103945.78;2078833;28;20183;-66
2023/12/17 04:23:11;;;;;;;13.33;5.13;;;;;;;2.56;100.00;103951.69;2078575;28;20207;-66
2023/12/17 04:24:11;;;;;;;10.30;6.17;;;;;;;2.52;100.00;103947.91;2079403;28;20198;-66
2023/12/17 04:25:12;;;;;;;11.43;6.73;;;;;;;2.54;100.00;103945.72;2077785;28;20191;-66
2023/12/17 04:26:12;;;;;;;8.43;4.67;;;;;;;2.53;100.00;103948.75;2078537;28;20216;-66
2023/12/17 04:27:13;;;;;;;10.13;5.40;;;;;;;0.59;100.00;103630.63;2079192;28;20243;-66
2023/12/17 04:28:13;;;;;;;13.13;6.63;;;;;;;2.54;100.00;103942.97;2078656;28;20271;-66
2023/12/17 04:29:14;;;;;;;7.40;4.77;;;;;;;2.50;100.00;103936.47;2079072;28;20203;-66
2023/12/17 04:30:14;;;;;;;17.17;6.90;;;;;;;2.56;100.00;103935.25;2078580;28;20187;-66
2023/12/17 04:31:15;;;;;;;10.13;5.63;;;;;;;2.57;100.00;103939.63;2078803;28;20186;-66
2023/12/17 04:32:15;;;;;;;11.37;6.33;;;;;;;2.58;100.00;103941.22;2079122;28;20241;-66
2023/12/17 04:33:16;;;;;;;14.30;7.27;;;;;;;2.51;100.00;103929.06;2079334;28;20271;-66
2023/12/17 04:34:17;;;;;;;8.23;4.80;;;;;;;2.55;100.00;103950.06;2078697;28;20193;-66
2023/12/17 04:35:17;;;;;;;10.20;5.00;;;;;;;2.55;100.00;103951.97;2079477;28;20272;-66
2023/12/17 04:36:18;;;;;;;10.33;5.07;;;;;;;2.49;100.00;103954.00;2079136;28;20192;-66
2023/12/17 04:37:18;;;;;;;9.43;4.83;;;;;;;2.40;100.00;103949.47;2078003;28;20552;-66
2023/12/17 04:38:19;;;;;;;9.80;5.73;;;;;;;2.37;100.00;103956.34;2078576;28;20599;-66
2023/12/17 04:39:20;;;;;;;8.80;4.90;;;;;;;2.38;100.00;103955.28;2078832;28;20183;-66
2023/12/17 04:40:20;;;;;;;9.90;6.72;;;;;;;2.41;100.00;103962.88;2079477;28;20234;-66
2023/12/17 04:41:21;;;;;;;9.97;5.20;;;;;;;2.45;100.00;103950.22;2078648;28;20198;-66